LICJ/PMO METAR and TAF weather

Enter ICAO airport designator
Station Type Date Time Source
LICJ METAR 2019/08/22 06:50 UTC NOAA

LICJ 220650Z 28004KT CAVOK 26/21 Q1017


Station Type Date Time Source
LICJ Decoded METAR 2019/08/22 06:50 UTC NOAA

Station name not available
Aug 22, 2019 - 02:50 AM EDT / 2019.08.22 0650 UTC
Wind: from the W (280 degrees) at 5 MPH (4 KT):0
Visibility: greater than 7 mile(s):0
Temperature: 78 F (26 C)
Dew Point: 69 F (21 C)
Relative Humidity: 73%
Pressure (altimeter): 30.03 in. Hg (1017 hPa)
ob: LICJ 220650Z 28004KT CAVOK 26/21 Q1017
cycle: 7

Station Type Date Time Source
LICJ TAF 2019/08/22 06:22 UTC NOAA

TAF LICJ 220500Z 2206/2306 VRB05KT CAVOK
BECMG 2208/2210 04014KT
BECMG 2217/2219 VRB05KT

Example: see airport list